Holloway, Minnesota
Current Conditions -  °F | °C
As of 1:14 PM on Saturday 25 Oct 2014 (Local Time) from KAQP Reporting Station
Clear Clear  
Wind Chill: 63°   Ceiling: Unl
Heat Index: 63°   Visibility: 10mi
Dew Point: 28°   Wind: 13mph
Humidity: 27%   Direction: 340°NNW
Pressure: 30.12"   Gusts: NA
Location:  45.25°N, 95.91°W
Report Text: KAQP 251814Z AUTO 34011KT 10SM CLR 17/M02 A3012 RMK AO2
Loading
Personal Weather Stations






























Interactive Weather Map
Tropical Storm Tracking
New forecast layout! Learn more

10-Day Weather Forecast

Advertisements
Track Severe Weather on mobile